Arden, New York
Current Conditions -  °F | °C
As of 12:45 PM on Friday 31 Oct 2014 (Local Time) from KSWF Reporting Station
Broken Clouds Broken Clouds  
Wind Chill: 50°   Ceiling: 4500
Heat Index: 50°   Visibility: 20mi
Dew Point: 37°   Wind: 6mph
Humidity: 62%   Direction: NA
Pressure: 29.99"   Gusts: NA
Location:  41.27°N, 74.15°W
Report Text: KSWF 311645Z VRB05KT 20SM BKN045 10/03 A2999
Loading
Personal Weather Stations






























Interactive Weather Map
Tropical Storm Tracking
New forecast layout! Learn more

10-Day Weather Forecast

Advertisements
Track Severe Weather on mobile